Snow/Ice From: 17-12-2017 10:00 Until: 18-12-2017 06:00 warning for: Snow/Ice Level: Yellow info button

Although rather usual in this region, locally or potentially dangerous phenomena are expected. (such as local winds, summer thunderstorms, rising streams or high waves) Be aware and pay attention to the latest weather updates, especially if you carry out activities exposed to weather or close to a stream or shoreline. 


Meteo18 Weather Cam more information Meteo18 Weather Cam


Thunder radar more information blitzortung!


warning for Snow/Ice more information rain snow radar


Visit our other weather sites:

Template documentation
and downloads

And another site



Weather Underground History page Text

Daily Summary for May 8, 2016 Units:  Metric    English   Both
« Previous Day
Next Day »
Daily Weekly Monthly Yearly Custom
  High: Low: Average:
Temperature: 24.3 °C 7.4 °C 15.8 °C
Dew Point: 12.5 °C 6.0 °C 9.5 °C
Humidity: 93 % 41 % 69 %
Wind Speed: 14.5 km/h 0.0 km/h 1.9 km/h
Wind Gust: 24.1 km/h - -
Wind:- - West
Pressure: 1008.0 hPa 1005.0 hPa -
Precipitation: 0.5 mm    
Historical Graphs
 
 
Tabular Data for May 8, 2016
Time Temperature Dew Point Pressure Wind Wind Speed Wind Gust Humidity Rainfall Rate (Hourly)
00:02 12.2 °C 9.4 °C 1007.0 hPa Calm   1.6 km/h 83 % 0.0 mm
00:07 12.1 °C 9.3 °C 1007.0 hPa Calm   1.6 km/h 83 % 0.0 mm
00:12 12.0 °C 9.2 °C 1007.0 hPa Calm     83 % 0.0 mm
00:17 11.8 °C 9.2 °C 1007.0 hPa Calm     84 % 0.0 mm
00:22 11.7 °C 9.3 °C 1007.0 hPa Calm     85 % 0.0 mm
00:27 11.7 °C 9.3 °C 1007.3 hPa Calm     85 % 0.0 mm
00:32 11.7 °C 9.3 °C 1007.3 hPa Calm     85 % 0.0 mm
00:37 11.6 °C 9.2 °C 1007.3 hPa Calm     85 % 0.0 mm
00:42 11.4 °C 9.0 °C 1007.3 hPa Calm     85 % 0.0 mm
00:47 11.2 °C 8.8 °C 1007.3 hPa Calm     85 % 0.0 mm
00:52 11.1 °C 8.8 °C 1007.3 hPa Calm     86 % 0.0 mm
00:57 10.9 °C 8.6 °C 1007.3 hPa Calm     86 % 0.0 mm
01:02 10.8 °C 8.7 °C 1007.3 hPa Calm     87 % 0.0 mm
01:07 10.7 °C 8.6 °C 1007.3 hPa Calm     87 % 0.0 mm
01:12 10.6 °C 8.7 °C 1007.3 hPa Calm     88 % 0.0 mm
01:17 10.6 °C 8.7 °C 1007.3 hPa Calm     88 % 0.0 mm
01:22 10.6 °C 8.7 °C 1007.3 hPa Calm     88 % 0.0 mm
01:27 10.6 °C 8.7 °C 1007.3 hPa Calm     88 % 0.0 mm
01:32 10.6 °C 8.7 °C 1007.3 hPa Calm     88 % 0.0 mm
01:37 10.6 °C 8.7 °C 1007.7 hPa Calm     88 % 0.0 mm
01:42 10.6 °C 8.7 °C 1007.7 hPa Calm     88 % 0.0 mm
01:47 10.4 °C 8.5 °C 1007.7 hPa Calm     88 % 0.0 mm
01:52 10.4 °C 8.5 °C 1007.7 hPa Calm     88 % 0.0 mm
01:57 10.3 °C 8.4 °C 1007.7 hPa Calm     88 % 0.0 mm
02:02 10.3 °C 8.4 °C 1007.7 hPa Calm     88 % 0.0 mm
02:07 10.2 °C 8.3 °C 1007.7 hPa Calm     88 % 0.0 mm
02:12 10.1 °C 8.2 °C 1007.7 hPa Calm     88 % 0.0 mm
02:17 9.9 °C 8.2 °C 1007.7 hPa Calm     89 % 0.0 mm
02:22 9.9 °C 8.2 °C 1007.7 hPa Calm     89 % 0.0 mm
02:27 9.8 °C 8.1 °C 1007.7 hPa Calm     89 % 0.0 mm
02:32 9.6 °C 7.9 °C 1007.7 hPa Calm     89 % 0.0 mm
02:37 9.5 °C 7.9 °C 1007.7 hPa Calm     90 % 0.0 mm
02:42 9.4 °C 7.7 °C 1007.7 hPa Calm     89 % 0.0 mm
02:47 9.3 °C 7.6 °C 1007.7 hPa Calm     89 % 0.0 mm
02:52 9.2 °C 7.6 °C 1007.7 hPa Calm     90 % 0.0 mm
02:57 9.1 °C 7.5 °C 1007.7 hPa Calm     90 % 0.0 mm
03:02 9.1 °C 7.5 °C 1007.7 hPa Calm     90 % 0.0 mm
03:07 9.0 °C 7.4 °C 1007.7 hPa Calm     90 % 0.0 mm
03:12 8.9 °C 7.3 °C 1007.7 hPa Calm     90 % 0.0 mm
03:17 8.9 °C 7.5 °C 1007.7 hPa Calm     91 % 0.0 mm
03:22 8.8 °C 7.4 °C 1007.7 hPa Calm     91 % 0.0 mm
03:27 8.8 °C 7.4 °C 1007.7 hPa Calm     91 % 0.0 mm
03:32 8.6 °C 7.2 °C 1007.7 hPa Calm     91 % 0.0 mm
03:37 8.6 °C 7.4 °C 1007.7 hPa Calm     92 % 0.0 mm
03:42 8.6 °C 7.4 °C 1007.7 hPa Calm     92 % 0.0 mm
03:47 8.5 °C 7.3 °C 1007.7 hPa Calm     92 % 0.0 mm
03:52 8.5 °C 7.3 °C 1007.7 hPa Calm     92 % 0.0 mm
03:57 8.4 °C 7.2 °C 1007.7 hPa Calm     92 % 0.0 mm
04:02 8.2 °C 7.0 °C 1007.7 hPa Calm     92 % 0.0 mm
04:07 8.2 °C 7.0 °C 1007.7 hPa Calm     92 % 0.0 mm
04:12 8.2 °C 7.1 °C 1007.7 hPa Calm     93 % 0.0 mm
04:17 8.2 °C 7.1 °C 1007.7 hPa Calm     93 % 0.0 mm
04:22 8.2 °C 7.0 °C 1007.7 hPa Calm     92 % 0.0 mm
04:32 8.0 °C 6.8 °C 1007.7 hPa Calm     92 % 0.0 mm
04:37 8.1 °C 7.0 °C 1007.7 hPa Calm     93 % 0.0 mm
04:42 8.0 °C 6.9 °C 1007.7 hPa Calm     93 % 0.0 mm
04:47 7.9 °C 6.7 °C 1007.7 hPa Calm     92 % 0.0 mm
04:52 7.8 °C 6.6 °C 1007.7 hPa Calm     92 % 0.0 mm
04:57 7.9 °C 6.7 °C 1007.7 hPa Calm     92 % 0.0 mm
05:02 7.9 °C 6.7 °C 1007.3 hPa Calm     92 % 0.0 mm
05:17 7.7 °C 6.5 °C 1007.3 hPa Calm     92 % 0.0 mm
05:22 7.6 °C 6.4 °C 1007.3 hPa Calm     92 % 0.0 mm
05:27 7.7 °C 6.5 °C 1007.3 hPa Calm     92 % 0.0 mm
05:32 7.6 °C 6.4 °C 1007.3 hPa Calm     92 % 0.0 mm
05:37 7.6 °C 6.4 °C 1007.3 hPa Calm     92 % 0.0 mm
05:42 7.6 °C 6.4 °C 1007.7 hPa Calm   1.6 km/h 92 % 0.0 mm
05:47 7.4 °C 6.2 °C 1007.3 hPa Calm   1.6 km/h 92 % 0.0 mm
05:52 7.5 °C 6.3 °C 1007.3 hPa Calm   1.6 km/h 92 % 0.0 mm
05:57 7.4 °C 6.2 °C 1007.7 hPa Calm   1.6 km/h 92 % 0.0 mm
06:02 7.5 °C 6.3 °C 1007.3 hPa Calm   1.6 km/h 92 % 0.0 mm
06:07 7.6 °C 6.4 °C 1007.3 hPa Calm   1.6 km/h 92 % 0.0 mm
06:12 7.5 °C 6.3 °C 1007.7 hPa Calm     92 % 0.0 mm
06:17 7.6 °C 6.4 °C 1007.7 hPa Calm     92 % 0.0 mm
06:22 7.4 °C 6.0 °C 1007.7 hPa Calm     91 % 0.0 mm
06:27 7.5 °C 6.1 °C 1007.7 hPa Calm     91 % 0.0 mm
06:32 7.4 °C 6.0 °C 1007.7 hPa Calm     91 % 0.0 mm
06:37 7.4 °C 6.0 °C 1007.7 hPa Calm     91 % 0.0 mm
06:47 7.5 °C 6.1 °C 1007.7 hPa Calm     91 % 0.0 mm
06:52 7.6 °C 6.2 °C 1007.7 hPa Calm     91 % 0 mm
06:57 7.7 °C 6.3 °C 1008.0 hPa Calm     91 % 0.0 mm
07:02 7.6 °C 6.2 °C 1008.0 hPa Calm     91 % 0.0 mm
07:07 7.6 °C 6.4 °C 1007.7 hPa Calm     92 % 0.0 mm
07:12 7.7 °C 6.5 °C 1007.7 hPa Calm     92 % 0.0 mm
07:17 7.8 °C 6.6 °C 1007.7 hPa Calm     92 % 0.0 mm
07:22 7.9 °C 6.7 °C 1007.7 hPa Calm     92 % 0.0 mm
07:27 8.1 °C 6.9 °C 1007.7 hPa Calm     92 % 0.0 mm
07:32 8.3 °C 7.1 °C 1008.0 hPa Calm     92 % 0.0 mm
07:37 8.4 °C 7.0 °C 1007.7 hPa Calm     91 % 0.0 mm
07:42 8.7 °C 7.3 °C 1008.0 hPa Calm     91 % 0.0 mm
07:47 9.0 °C 7.8 °C 1008.0 hPa Calm     92 % 0.0 mm
07:52 9.2 °C 8.0 °C 1008.0 hPa Calm     92 % 0.0 mm
07:57 9.5 °C 8.3 °C 1008.0 hPa Calm     92 % 0.0 mm
08:02 9.8 °C 8.6 °C 1008.0 hPa Calm     92 % 0.0 mm
08:07 10.1 °C 8.9 °C 1008.0 hPa Calm     92 % 0.0 mm
08:12 10.7 °C 9.1 °C 1008.0 hPa Calm     90 % 0.0 mm
08:17 11.1 °C 9.0 °C 1008.0 hPa Calm   1.6 km/h 87 % 0.0 mm
08:22 11.5 °C 9.1 °C 1008.0 hPa Calm   1.6 km/h 85 % 0.0 mm
08:27 12.0 °C 9.0 °C 1008.0 hPa Calm   1.6 km/h 82 % 0.0 mm
08:32 12.4 °C 9.2 °C 1008.0 hPa Calm   1.6 km/h 81 % 0.0 mm
08:37 12.8 °C 9.2 °C 1008.0 hPa Calm   1.6 km/h 79 % 0.0 mm
08:42 13.2 °C 9.4 °C 1008.0 hPa Calm     78 % 0.0 mm
08:47 13.6 °C 9.4 °C 1008.0 hPa Calm     76 % 0.0 mm
08:52 14.1 °C 9.3 °C 1008.0 hPa Calm   3.2 km/h 73 % 0.0 mm
08:57 14.6 °C 9.6 °C 1008.0 hPa Calm   3.2 km/h 72 % 0.0 mm
09:02 15.0 °C 9.6 °C 1007.7 hPa NNW 1.6 km/h 3.2 km/h 70 % 0.0 mm
09:07 15.3 °C 9.9 °C 1008.0 hPa NNW 1.6 km/h 4.8 km/h 70 % 0.0 mm
09:12 15.6 °C 10.1 °C 1007.7 hPa Calm   6.4 km/h 70 % 0.0 mm
09:17 15.9 °C 10.0 °C 1007.7 hPa North 4.8 km/h 6.4 km/h 68 % 0.0 mm
09:22 16.2 °C 10.3 °C 1007.7 hPa NW 3.2 km/h 6.4 km/h 68 % 0.0 mm
09:32 16.6 °C 10.0 °C 1007.7 hPa NW 3.2 km/h 6.4 km/h 65 % 0.0 mm
09:37 17.0 °C 9.9 °C 1007.7 hPa NNW 3.2 km/h 6.4 km/h 63 % 0.0 mm
09:42 17.4 °C 10.0 °C 1007.7 hPa NNW 3.2 km/h 8.0 km/h 62 % 0.0 mm
09:47 17.7 °C 9.8 °C 1007.7 hPa Calm   8.0 km/h 60 % 0.0 mm
09:52 18.0 °C 10.9 °C 1007.7 hPa NW 3.2 km/h 8.0 km/h 63 % 0.0 mm
09:57 17.9 °C 9.5 °C 1007.7 hPa NW 1.6 km/h 9.7 km/h 58 % 0.0 mm
10:02 18.2 °C 10.1 °C 1007.7 hPa NW 3.2 km/h 14.5 km/h 59 % 0.0 mm
10:07 18.4 °C 9.7 °C 1007.7 hPa NW 4.8 km/h 14.5 km/h 57 % 0.0 mm
10:12 18.8 °C 11.1 °C 1007.7 hPa WSW 3.2 km/h 9.7 km/h 61 % 0.0 mm
10:17 19.1 °C 10.4 °C 1007.7 hPa West 1.6 km/h 9.7 km/h 57 % 0.0 mm
10:22 19.3 °C 10.8 °C 1007.7 hPa NW 1.6 km/h 9.7 km/h 58 % 0.0 mm
10:27 19.3 °C 10.6 °C 1007.7 hPa Calm   8.0 km/h 57 % 0.0 mm
10:32 19.2 °C 9.9 °C 1007.7 hPa Calm   8.0 km/h 55 % 0.0 mm
10:37 19.2 °C 10.2 °C 1007.7 hPa Calm   8.0 km/h 56 % 0.0 mm
10:42 19.2 °C 10.2 °C 1007.7 hPa NNE 1.6 km/h 8.0 km/h 56 % 0.0 mm
10:47 19.3 °C 10.3 °C 1007.3 hPa NW 6.4 km/h 9.7 km/h 56 % 0.0 mm
10:57 19.0 °C 9.8 °C 1007.7 hPa Calm   11.3 km/h 55 % 0.0 mm
11:02 18.9 °C 9.7 °C 1007.3 hPa NW 1.6 km/h 11.3 km/h 55 % 0.0 mm
11:07 18.9 °C 9.9 °C 1007.3 hPa NW 1.6 km/h 11.3 km/h 56 % 0.0 mm
11:12 19.1 °C 10.1 °C 1007.3 hPa NW 4.8 km/h 9.7 km/h 56 % 0.0 mm
11:17 19.3 °C 10.8 °C 1007.3 hPa WNW 3.2 km/h 9.7 km/h 58 % 0.0 mm
11:22 19.5 °C 10.2 °C 1007.3 hPa NW 3.2 km/h 9.7 km/h 55 % 0.0 mm
11:27 19.7 °C 10.7 °C 1007.3 hPa WNW 3.2 km/h 8.0 km/h 56 % 0.0 mm
11:32 20.1 °C 10.5 °C 1007.3 hPa NW 1.6 km/h 8.0 km/h 54 % 0.0 mm
11:37 20.2 °C 10.0 °C 1007.3 hPa WSW 1.6 km/h 8.0 km/h 52 % 0.0 mm
11:42 20.3 °C 10.1 °C 1007.3 hPa WNW 1.6 km/h 6.4 km/h 52 % 0.0 mm
11:47 20.4 °C 10.5 °C 1007.3 hPa West 1.6 km/h 9.7 km/h 53 % 0.0 mm
11:52 20.6 °C 10.7 °C 1007.3 hPa WNW 1.6 km/h 9.7 km/h 53 % 0.0 mm
11:57 20.7 °C 9.9 °C 1007.0 hPa Calm   9.7 km/h 50 % 0.0 mm
12:02 20.7 °C 10.2 °C 1007.0 hPa Calm   8.0 km/h 51 % 0.0 mm
12:07 20.4 °C 9.6 °C 1007.0 hPa NW 4.8 km/h 9.7 km/h 50 % 0.0 mm
12:12 20.3 °C 10.1 °C 1007.0 hPa NNW 3.2 km/h 14.5 km/h 52 % 0.0 mm
12:17 20.4 °C 11.1 °C 1007.0 hPa NW 1.6 km/h 14.5 km/h 55 % 0.0 mm
12:22 20.6 °C 11.2 °C 1007.0 hPa NNW 9.7 km/h 9.7 km/h 55 % 0.0 mm
12:27 20.7 °C 11.1 °C 1007.0 hPa NW 4.8 km/h 12.9 km/h 54 % 0.0 mm
12:32 21.0 °C 10.8 °C 1007.0 hPa SSW 3.2 km/h 12.9 km/h 52 % 0.0 mm
12:42 21.6 °C 10.1 °C 1006.7 hPa NNW 4.8 km/h 11.3 km/h 48 % 0.0 mm
12:47 21.5 °C 10.3 °C 1006.7 hPa NNW 9.7 km/h 12.9 km/h 49 % 0.0 mm
12:52 21.4 °C 10.5 °C 1006.7 hPa NW 6.4 km/h 16.1 km/h 50 % 0.0 mm
12:57 21.3 °C 10.2 °C 1006.7 hPa NNW 1.6 km/h 16.1 km/h 49 % 0.0 mm
13:02 21.1 °C 10.0 °C 1006.7 hPa NW 4.8 km/h 16.1 km/h 49 % 0.0 mm
13:07 21.2 °C 10.4 °C 1006.7 hPa NNW 8.0 km/h 12.9 km/h 50 % 0.0 mm
13:12 21.7 °C 10.8 °C 1006.7 hPa SW 1.6 km/h 14.5 km/h 50 % 0.0 mm
13:17 22.2 °C 10.7 °C 1006.7 hPa North 6.4 km/h 17.7 km/h 48 % 0.0 mm
13:22 22.1 °C 10.9 °C 1006.3 hPa NNW 14.5 km/h 17.7 km/h 49 % 0.0 mm
13:27 22.1 °C 10.9 °C 1006.3 hPa NW 6.4 km/h 17.7 km/h 49 % 0.0 mm
13:32 22.2 °C 9.7 °C 1006.3 hPa WNW 8.0 km/h 16.1 km/h 45 % 0.0 mm
13:37 22.5 °C 10.0 °C 1006.3 hPa NNE 11.3 km/h 19.3 km/h 45 % 0.0 mm
13:42 22.8 °C 9.9 °C 1006.3 hPa NNW 6.4 km/h 19.3 km/h 44 % 0.0 mm
13:52 23.0 °C 9.0 °C 1006.0 hPa East 9.7 km/h 20.9 km/h 41 % 0.0 mm
13:57 22.9 °C 8.9 °C 1006.3 hPa NNW 6.4 km/h 20.9 km/h 41 % 0.0 mm
14:02 22.9 °C 9.3 °C 1006.3 hPa WNW 11.3 km/h 22.5 km/h 42 % 0.0 mm
14:07 22.6 °C 9.4 °C 1006.0 hPa NW 3.2 km/h 24.1 km/h 43 % 0.0 mm
14:17 22.5 °C 9.6 °C 1006.0 hPa NNW 6.4 km/h 24.1 km/h 44 % 0.0 mm
14:22 22.9 °C 9.7 °C 1006.0 hPa NW 11.3 km/h 22.5 km/h 43 % 0.0 mm
14:27 23.2 °C 9.6 °C 1006.0 hPa SSW 8.0 km/h 17.7 km/h 42 % 0.0 mm
14:32 23.2 °C 9.9 °C 1006.0 hPa NW 8.0 km/h 17.7 km/h 43 % 0.0 mm
14:37 22.4 °C 8.9 °C 1006.0 hPa NNW 9.7 km/h 17.7 km/h 42 % 0.0 mm
14:42 22.3 °C 9.8 °C 1006.0 hPa WNW 8.0 km/h 17.7 km/h 45 % 0.0 mm
14:47 22.7 °C 10.2 °C 1006.0 hPa NW 6.4 km/h 16.1 km/h 45 % 0.0 mm
14:52 22.8 °C 9.6 °C 1006.0 hPa West 4.8 km/h 17.7 km/h 43 % 0.0 mm
14:57 22.8 °C 9.2 °C 1006.0 hPa NW 6.4 km/h 17.7 km/h 42 % 0.0 mm
15:02 22.6 °C 9.4 °C 1006.0 hPa NNE 8.0 km/h 17.7 km/h 43 % 0.0 mm
15:07 22.7 °C 11.1 °C 1005.6 hPa NNE 3.2 km/h 17.7 km/h 48 % 0.0 mm
15:12 23.1 °C 9.8 °C 1005.6 hPa West 1.6 km/h 17.7 km/h 43 % 0.0 mm
15:17 23.5 °C 10.5 °C 1005.6 hPa SW 1.6 km/h 14.5 km/h 44 % 0.0 mm
15:22 23.6 °C 9.9 °C 1005.6 hPa NNW 9.7 km/h 17.7 km/h 42 % 0.0 mm
15:27 23.4 °C 9.8 °C 1005.6 hPa NNW 4.8 km/h 17.7 km/h 42 % 0.0 mm
15:32 23.7 °C 10.7 °C 1005.6 hPa SE 1.6 km/h 17.7 km/h 44 % 0.0 mm
15:37 23.6 °C 10.3 °C 1005.6 hPa NNW 6.4 km/h 14.5 km/h 43 % 0.0 mm
15:42 23.3 °C 10.0 °C 1005.6 hPa WNW 3.2 km/h 17.7 km/h 43 % 0.0 mm
15:47 23.5 °C 10.5 °C 1005.3 hPa WNW 4.8 km/h 17.7 km/h 44 % 0.0 mm
15:52 23.7 °C 10.4 °C 1005.3 hPa NNW 14.5 km/h 17.7 km/h 43 % 0.0 mm
15:57 23.8 °C 11.8 °C 1005.3 hPa NW 4.8 km/h 19.3 km/h 47 % 0.0 mm
16:02 23.8 °C 10.5 °C 1005.3 hPa NNW 8.0 km/h 19.3 km/h 43 % 0.0 mm
16:07 23.6 °C 9.9 °C 1005.3 hPa Calm   19.3 km/h 42 % 0.0 mm
16:12 23.8 °C 10.5 °C 1005.3 hPa NW 9.7 km/h 12.9 km/h 43 % 0.0 mm
16:17 23.8 °C 10.1 °C 1005.3 hPa West 3.2 km/h 12.9 km/h 42 % 0.0 mm
16:22 23.7 °C 10.4 °C 1005.3 hPa East 1.6 km/h 14.5 km/h 43 % 0.0 mm
16:27 23.7 °C 10.4 °C 1005.3 hPa NW 4.8 km/h 19.3 km/h 43 % 0.0 mm
16:32 24.1 °C 10.4 °C 1005.0 hPa NW 1.6 km/h 19.3 km/h 42 % 0.0 mm
16:37 24.1 °C 11.8 °C 1005.0 hPa WSW 3.2 km/h 19.3 km/h 46 % 0.0 mm
16:42 24.3 °C 11.3 °C 1005.0 hPa Calm   12.9 km/h 44 % 0.0 mm
16:47 24.0 °C 10.3 °C 1005.0 hPa NNW 6.4 km/h 12.9 km/h 42 % 0.0 mm
16:52 24.1 °C 11.4 °C 1005.0 hPa WSW 3.2 km/h 14.5 km/h 45 % 0.0 mm
16:57 24.3 °C 10.6 °C 1005.0 hPa West 4.8 km/h 14.5 km/h 42 % 0.0 mm
17:02 24.2 °C 10.5 °C 1005.3 hPa NW 6.4 km/h 14.5 km/h 42 % 0.0 mm
17:07 24.0 °C 11.0 °C 1005.3 hPa NW 1.6 km/h 12.9 km/h 44 % 0.0 mm
17:12 23.6 °C 10.3 °C 1005.0 hPa NNE 3.2 km/h 12.9 km/h 43 % 0.0 mm
17:17 23.5 °C 10.5 °C 1005.3 hPa WNW 6.4 km/h 12.9 km/h 44 % 0.0 mm
17:22 23.4 °C 10.5 °C 1005.3 hPa NW 8.0 km/h 14.5 km/h 44 % 0.0 mm
17:27 23.2 °C 10.6 °C 1005.3 hPa NW 4.8 km/h 14.5 km/h 45 % 0.0 mm
17:32 23.0 °C 10.4 °C 1005.3 hPa WNW 1.6 km/h 14.5 km/h 45 % 0.0 mm
17:37 22.8 °C 10.9 °C 1005.3 hPa NNW 3.2 km/h 11.3 km/h 47 % 0.0 mm
17:42 22.8 °C 10.9 °C 1005.0 hPa NNW 4.8 km/h 11.3 km/h 47 % 0.0 mm
17:47 22.9 °C 11.0 °C 1005.3 hPa NW 4.8 km/h 11.3 km/h 47 % 0.0 mm
17:52 23.0 °C 11.1 °C 1005.0 hPa Calm   11.3 km/h 47 % 0.0 mm
17:57 23.2 °C 11.9 °C 1005.0 hPa Calm   9.7 km/h 49 % 0.0 mm
18:02 23.2 °C 10.9 °C 1005.0 hPa WSW 1.6 km/h 9.7 km/h 46 % 0.0 mm
18:07 23.1 °C 11.5 °C 1005.0 hPa Calm   4.8 km/h 48 % 0.0 mm
18:17 22.6 °C 11.3 °C 1005.3 hPa Calm   12.9 km/h 49 % 0.0 mm
18:22 22.4 °C 10.8 °C 1005.3 hPa WSW 1.6 km/h 12.9 km/h 48 % 0.0 mm
18:27 22.2 °C 11.9 °C 1005.3 hPa WSW 3.2 km/h 8.0 km/h 52 % 0.0 mm
18:32 21.9 °C 11.9 °C 1005.3 hPa West 3.2 km/h 8.0 km/h 53 % 0.0 mm
18:47 21.3 °C 12.2 °C 1005.3 hPa West 4.8 km/h 9.7 km/h 56 % 0.0 mm
18:52 21.1 °C 12.5 °C 1005.3 hPa SW 1.6 km/h 8.0 km/h 58 % 0.0 mm
18:57 20.9 °C 12.3 °C 1005.3 hPa SW 1.6 km/h 8.0 km/h 58 % 0.0 mm
19:02 20.7 °C 12.4 °C 1005.3 hPa WSW 3.2 km/h 8.0 km/h 59 % 0.0 mm
19:07 20.6 °C 11.8 °C 1005.3 hPa Calm   8.0 km/h 57 % 0.0 mm
19:12 20.4 °C 11.9 °C 1005.3 hPa Calm   8.0 km/h 58 % 0.0 mm
19:22 20.1 °C 11.3 °C 1005.6 hPa Calm   8.0 km/h 57 % 0.0 mm
19:32 19.8 °C 11.6 °C 1005.6 hPa Calm   9.7 km/h 59 % 0.0 mm
19:42 19.4 °C 11.4 °C 1005.6 hPa Calm   6.4 km/h 60 % 0.0 mm
19:47 19.2 °C 11.5 °C 1005.6 hPa Calm   3.2 km/h 61 % 0.0 mm
19:52 19.1 °C 11.4 °C 1005.6 hPa Calm   1.6 km/h 61 % 0.0 mm
20:02 18.8 °C 11.4 °C 1005.6 hPa Calm     62 % 0.0 mm
20:07 18.8 °C 10.6 °C 1005.6 hPa West 1.6 km/h 8.0 km/h 59 % 0.0 mm
20:12 18.8 °C 10.4 °C 1006.0 hPa Calm   8.0 km/h 58 % 0.0 mm
20:17 18.8 °C 10.1 °C 1006.0 hPa Calm   8.0 km/h 57 % 0.0 mm
20:22 18.7 °C 9.7 °C 1006.0 hPa West 1.6 km/h 9.7 km/h 56 % 0.0 mm
20:27 18.6 °C 10.4 °C 1006.3 hPa Calm   9.7 km/h 59 % 0.0 mm
20:32 18.4 °C 10.0 °C 1006.3 hPa West 3.2 km/h 9.7 km/h 58 % 0.0 mm
20:37 18.2 °C 9.8 °C 1006.3 hPa WSW 1.6 km/h 9.7 km/h 58 % 0.0 mm
20:42 18.1 °C 10.0 °C 1006.3 hPa Calm   9.7 km/h 59 % 0.0 mm
20:47 18.1 °C 10.0 °C 1006.3 hPa WSW 3.2 km/h 9.7 km/h 59 % 0.0 mm
20:52 17.9 °C 9.8 °C 1006.3 hPa Calm   3.2 km/h 59 % 0.0 mm
20:57 17.8 °C 9.9 °C 1006.3 hPa Calm   3.2 km/h 60 % 0.0 mm
21:02 17.7 °C 9.8 °C 1006.3 hPa Calm   3.2 km/h 60 % 0.0 mm
21:07 17.7 °C 9.8 °C 1006.3 hPa Calm   1.6 km/h 60 % 0.0 mm
21:12 17.6 °C 10.0 °C 1006.7 hPa Calm   1.6 km/h 61 % 0.0 mm
21:22 17.4 °C 10.3 °C 1006.7 hPa NW 1.6 km/h 6.4 km/h 63 % 0.0 mm
21:27 17.3 °C 10.7 °C 1006.7 hPa ESE 1.6 km/h 8.0 km/h 65 % 0.0 mm
21:32 17.1 °C 10.9 °C 1006.7 hPa NNW 1.6 km/h 8.0 km/h 67 % 0.0 mm
21:37 16.8 °C 11.3 °C 1007.0 hPa Calm   8.0 km/h 70 % 0.0 mm
21:47 16.2 °C 11.6 °C 1007.0 hPa Calm   3.2 km/h 74 % 0.0 mm
21:52 15.8 °C 11.6 °C 1007.0 hPa Calm   3.2 km/h 76 % 0.0 mm
22:02 15.4 °C 11.8 °C 1007.0 hPa Calm   3.2 km/h 79 % 0.3 mm
22:07 15.3 °C 11.9 °C 1007.0 hPa Calm   3.2 km/h 80 % 0.3 mm
22:12 15.1 °C 12.0 °C 1007.3 hPa Calm   3.2 km/h 82 % 0.3 mm
22:17 14.9 °C 12.0 °C 1007.3 hPa Calm   3.2 km/h 83 % 0.3 mm
22:22 14.7 °C 11.8 °C 1007.3 hPa Calm   3.2 km/h 83 % 0.5 mm
22:27 14.6 °C 11.9 °C 1007.0 hPa NW 1.6 km/h 3.2 km/h 84 % 0.5 mm
22:32 14.6 °C 12.1 °C 1007.0 hPa Calm   4.8 km/h 85 % 0.5 mm
22:37 14.4 °C 12.1 °C 1007.0 hPa NW 1.6 km/h 4.8 km/h 86 % 0.5 mm
22:42 14.4 °C 12.1 °C 1007.0 hPa Calm   4.8 km/h 86 % 0.5 mm
22:47 14.3 °C 12.2 °C 1007.0 hPa Calm   4.8 km/h 87 % 0.5 mm
22:52 14.3 °C 12.0 °C 1007.0 hPa WSW 4.8 km/h 4.8 km/h 86 % 0.5 mm
22:57 14.4 °C 12.1 °C 1007.0 hPa NW 1.6 km/h 4.8 km/h 86 % 0.5 mm
23:02 14.4 °C 12.1 °C 1007.0 hPa Calm   4.8 km/h 86 % 0.5 mm
23:07 14.4 °C 12.1 °C 1007.0 hPa Calm   4.8 km/h 86 % 0.5 mm
23:12 14.4 °C 12.1 °C 1007.0 hPa WNW 3.2 km/h 6.4 km/h 86 % 0.5 mm
23:17 14.4 °C 12.1 °C 1007.0 hPa WNW 1.6 km/h 6.4 km/h 86 % 0.3 mm
23:22 14.5 °C 12.2 °C 1007.0 hPa Calm   4.8 km/h 86 % 0.3 mm
23:27 14.5 °C 12.2 °C 1007.0 hPa Calm   4.8 km/h 86 % 0.3 mm
23:32 14.4 °C 12.1 °C 1007.0 hPa Calm   6.4 km/h 86 % 0.3 mm
23:37 14.4 °C 12.3 °C 1007.0 hPa Calm   6.4 km/h 87 % 0.0 mm
23:42 14.3 °C 12.2 °C 1007.0 hPa Calm   6.4 km/h 87 % 0.0 mm
23:47 14.3 °C 12.2 °C 1007.0 hPa Calm   4.8 km/h 87 % 0.0 mm
23:52 14.3 °C 12.2 °C 1007.0 hPa Calm   4.8 km/h 87 % 0.0 mm
23:57 14.4 °C 12.1 °C 1006.7 hPa WSW 1.6 km/h 4.8 km/h 86 % 0.0 mm
Meteo18
Compliments of Weather Underground - 4 mb

Script developed by  Jim McMurry - jmcmurry@mwt.net Adapted for the template by  Wim van der Kuil - Leuven-Template.eu

You find our weather info also at:

European Weather Network

Weather Underground

Equipment we use:

Weather-station
Davis Vue

Weather-program
Meteohub

Weather-server
Raspberry PI 2 B+

Provider
1 and 1

Davis Vue

Meteohub

Raspberry PI 2 B+

1 and 1